sensor_id;sensor_type;location;lat;lon;timestamp;pressure;altitude;pressure_sealevel;temperature;humidity
43488;BME280;29078;41.932;25.554;2023-07-24T00:02:23;99667.38;;;27.56;44.63
43488;BME280;29078;41.932;25.554;2023-07-24T00:04:48;99666.84;;;27.53;45.67
43488;BME280;29078;41.932;25.554;2023-07-24T00:07:13;99666.59;;;27.50;47.54
43488;BME280;29078;41.932;25.554;2023-07-24T00:09:38;99661.53;;;27.38;48.73
43488;BME280;29078;41.932;25.554;2023-07-24T00:12:04;99664.59;;;27.32;47.33
43488;BME280;29078;41.932;25.554;2023-07-24T00:14:29;99670.63;;;27.23;46.58
43488;BME280;29078;41.932;25.554;2023-07-24T00:16:54;99664.19;;;27.14;50.96
43488;BME280;29078;41.932;25.554;2023-07-24T00:19:19;99663.38;;;27.14;50.04
43488;BME280;29078;41.932;25.554;2023-07-24T00:21:45;99670.97;;;27.17;49.06
43488;BME280;29078;41.932;25.554;2023-07-24T00:24:10;99662.53;;;27.18;46.96
43488;BME280;29078;41.932;25.554;2023-07-24T00:26:35;99663.34;;;27.19;49.16
43488;BME280;29078;41.932;25.554;2023-07-24T00:29:01;99661.25;;;27.11;49.37
43488;BME280;29078;41.932;25.554;2023-07-24T00:31:26;99652.63;;;27.04;48.14
43488;BME280;29078;41.932;25.554;2023-07-24T00:33:52;99659.44;;;26.96;49.95
43488;BME280;29078;41.932;25.554;2023-07-24T00:36:17;99665.94;;;26.95;49.24
43488;BME280;29078;41.932;25.554;2023-07-24T00:38:42;99660.00;;;26.93;50.80
43488;BME280;29078;41.932;25.554;2023-07-24T00:41:07;99660.31;;;26.86;52.36
43488;BME280;29078;41.932;25.554;2023-07-24T00:43:33;99665.72;;;26.91;52.27
43488;BME280;29078;41.932;25.554;2023-07-24T00:45:58;99666.47;;;26.97;51.93
43488;BME280;29078;41.932;25.554;2023-07-24T00:48:24;99666.50;;;26.92;52.89
43488;BME280;29078;41.932;25.554;2023-07-24T00:50:49;99666.81;;;26.90;52.16
43488;BME280;29078;41.932;25.554;2023-07-24T00:53:14;99664.66;;;26.87;56.40
43488;BME280;29078;41.932;25.554;2023-07-24T00:55:40;99662.75;;;26.88;52.47
43488;BME280;29078;41.932;25.554;2023-07-24T00:58:06;99660.66;;;26.75;55.40
43488;BME280;29078;41.932;25.554;2023-07-24T01:00:31;99672.84;;;26.72;56.10
43488;BME280;29078;41.932;25.554;2023-07-24T01:02:57;99666.63;;;26.72;56.26
43488;BME280;29078;41.932;25.554;2023-07-24T01:05:24;99668.00;;;26.69;54.26
43488;BME280;29078;41.932;25.554;2023-07-24T01:07:50;99666.09;;;26.70;54.31
43488;BME280;29078;41.932;25.554;2023-07-24T01:10:16;99660.19;;;26.63;57.42
43488;BME280;29078;41.932;25.554;2023-07-24T01:15:11;99660.97;;;26.68;57.42
43488;BME280;29078;41.932;25.554;2023-07-24T01:17:40;99660.97;;;26.68;54.57
43488;BME280;29078;41.932;25.554;2023-07-24T01:20:07;99651.47;;;26.71;50.96
43488;BME280;29078;41.932;25.554;2023-07-24T01:22:42;99655.56;;;26.68;53.29
43488;BME280;29078;41.932;25.554;2023-07-24T01:27:42;99663.75;;;26.58;55.23
43488;BME280;29078;41.932;25.554;2023-07-24T01:30:08;99668.88;;;26.59;57.02
43488;BME280;29078;41.932;25.554;2023-07-24T01:32:33;99666.16;;;26.59;58.65
43488;BME280;29078;41.932;25.554;2023-07-24T01:34:58;99669.69;;;26.60;57.36
43488;BME280;29078;41.932;25.554;2023-07-24T01:37:24;99663.75;;;26.58;56.80
43488;BME280;29078;41.932;25.554;2023-07-24T01:39:50;99667.56;;;26.52;58.48
43488;BME280;29078;41.932;25.554;2023-07-24T01:42:16;99671.16;;;26.42;59.17
43488;BME280;29078;41.932;25.554;2023-07-24T01:44:41;99667.63;;;26.42;58.89
43488;BME280;29078;41.932;25.554;2023-07-24T01:47:07;99666.56;;;26.38;57.08
43488;BME280;29078;41.932;25.554;2023-07-24T01:49:32;99667.63;;;26.42;56.97
43488;BME280;29078;41.932;25.554;2023-07-24T01:51:57;99670.31;;;26.47;54.54
43488;BME280;29078;41.932;25.554;2023-07-24T01:54:23;99676.50;;;26.52;55.46
43488;BME280;29078;41.932;25.554;2023-07-24T01:56:48;99676.50;;;26.52;56.57
43488;BME280;29078;41.932;25.554;2023-07-24T01:59:13;99665.69;;;26.52;53.48
43488;BME280;29078;41.932;25.554;2023-07-24T02:01:38;99670.00;;;26.53;53.21
43488;BME280;29078;41.932;25.554;2023-07-24T02:04:04;99672.19;;;26.51;56.58
43488;BME280;29078;41.932;25.554;2023-07-24T02:06:29;99683.00;;;26.51;55.33
43488;BME280;29078;41.932;25.554;2023-07-24T02:08:54;99680.84;;;26.53;55.70
43488;BME280;29078;41.932;25.554;2023-07-24T02:11:19;99678.66;;;26.55;55.99
43488;BME280;29078;41.932;25.554;2023-07-24T02:13:45;99676.22;;;26.54;57.53
43488;BME280;29078;41.932;25.554;2023-07-24T02:16:11;99679.50;;;26.51;57.03
43488;BME280;29078;41.932;25.554;2023-07-24T02:18:36;99674.88;;;26.51;54.73
43488;BME280;29078;41.932;25.554;2023-07-24T02:21:02;99675.41;;;26.53;54.86
43488;BME280;29078;41.932;25.554;2023-07-24T02:23:27;99671.38;;;26.51;56.67
43488;BME280;29078;41.932;25.554;2023-07-24T02:25:52;99674.91;;;26.46;56.31
43488;BME280;29078;41.932;25.554;2023-07-24T02:28:18;99669.81;;;26.40;55.18
43488;BME280;29078;41.932;25.554;2023-07-24T02:30:43;99664.94;;;26.37;55.43
43488;BME280;29078;41.932;25.554;2023-07-24T02:33:08;99670.38;;;26.37;57.77
43488;BME280;29078;41.932;25.554;2023-07-24T02:35:40;99675.25;;;26.35;57.59
43488;BME280;29078;41.932;25.554;2023-07-24T02:38:05;99680.06;;;26.43;54.31
43488;BME280;29078;41.932;25.554;2023-07-24T02:40:31;99676.06;;;26.35;58.19
43488;BME280;29078;41.932;25.554;2023-07-24T02:42:56;99683.91;;;26.32;57.34
43488;BME280;29078;41.932;25.554;2023-07-24T02:45:21;99668.31;;;26.08;61.05
43488;BME280;29078;41.932;25.554;2023-07-24T02:47:46;99682.38;;;26.00;59.38
43488;BME280;29078;41.932;25.554;2023-07-24T02:50:12;99676.16;;;26.00;58.57
43488;BME280;29078;41.932;25.554;2023-07-24T02:52:37;99676.72;;;26.02;58.37
43488;BME280;29078;41.932;25.554;2023-07-24T02:55:02;99679.16;;;26.03;58.02
43488;BME280;29078;41.932;25.554;2023-07-24T02:57:27;99673.72;;;26.03;59.30
43488;BME280;29078;41.932;25.554;2023-07-24T02:59:53;99671.56;;;26.00;58.74
43488;BME280;29078;41.932;25.554;2023-07-24T03:02:18;99672.34;;;26.01;56.29
43488;BME280;29078;41.932;25.554;2023-07-24T03:04:43;99679.41;;;26.07;57.63
43488;BME280;29078;41.932;25.554;2023-07-24T03:07:08;99679.94;;;26.09;58.58
43488;BME280;29078;41.932;25.554;2023-07-24T03:09:34;99676.94;;;26.10;56.13
43488;BME280;29078;41.932;25.554;2023-07-24T03:11:59;99681.03;;;26.08;55.58
43488;BME280;29078;41.932;25.554;2023-07-24T03:14:24;99679.13;;;25.98;61.16
43488;BME280;29078;41.932;25.554;2023-07-24T03:16:51;99679.44;;;25.91;58.51
43488;BME280;29078;41.932;25.554;2023-07-24T03:19:16;99674.28;;;25.90;57.73
43488;BME280;29078;41.932;25.554;2023-07-24T03:21:42;99685.13;;;25.85;59.76
43488;BME280;29078;41.932;25.554;2023-07-24T03:24:07;99681.06;;;25.87;60.28
43488;BME280;29078;41.932;25.554;2023-07-24T03:26:33;99682.97;;;25.87;57.60
43488;BME280;29078;41.932;25.554;2023-07-24T03:28:59;99677.56;;;25.77;60.17
43488;BME280;29078;41.932;25.554;2023-07-24T03:31:24;99679.19;;;25.78;58.01
43488;BME280;29078;41.932;25.554;2023-07-24T03:33:49;99670.53;;;25.81;57.89
43488;BME280;29078;41.932;25.554;2023-07-24T03:36:15;99669.97;;;25.84;57.62
43488;BME280;29078;41.932;25.554;2023-07-24T03:38:40;99652.38;;;25.86;57.63
43488;BME280;29078;41.932;25.554;2023-07-24T03:41:05;99664.28;;;25.85;61.23
43488;BME280;29078;41.932;25.554;2023-07-24T03:43:30;99661.88;;;25.84;56.29
43488;BME280;29078;41.932;25.554;2023-07-24T03:45:56;99664.00;;;25.92;59.18
43488;BME280;29078;41.932;25.554;2023-07-24T03:48:21;99669.94;;;25.94;59.39
43488;BME280;29078;41.932;25.554;2023-07-24T03:50:46;99665.31;;;26.00;57.12
43488;BME280;29078;41.932;25.554;2023-07-24T03:53:11;99670.50;;;26.01;60.05
43488;BME280;29078;41.932;25.554;2023-07-24T03:55:37;99666.16;;;26.05;57.67
43488;BME280;29078;41.932;25.554;2023-07-24T03:58:02;99663.72;;;26.04;59.31
43488;BME280;29078;41.932;25.554;2023-07-24T04:00:27;99663.72;;;26.04;57.51
43488;BME280;29078;41.932;25.554;2023-07-24T04:02:53;99658.03;;;26.00;59.43
43488;BME280;29078;41.932;25.554;2023-07-24T04:05:19;99661.56;;;25.95;57.93
43488;BME280;29078;41.932;25.554;2023-07-24T04:07:44;99666.16;;;25.95;56.37
43488;BME280;29078;41.932;25.554;2023-07-24T04:10:09;99668.59;;;25.91;60.56
43488;BME280;29078;41.932;25.554;2023-07-24T04:12:35;99674.84;;;25.82;60.58
43488;BME280;29078;41.932;25.554;2023-07-24T04:15:00;99674.84;;;25.82;59.13
43488;BME280;29078;41.932;25.554;2023-07-24T04:17:25;99669.16;;;25.83;57.49
43488;BME280;29078;41.932;25.554;2023-07-24T04:19:50;99675.38;;;25.89;60.29
43488;BME280;29078;41.932;25.554;2023-07-24T04:22:15;99674.28;;;25.95;56.06
43488;BME280;29078;41.932;25.554;2023-07-24T04:24:41;99671.28;;;25.96;57.11
43488;BME280;29078;41.932;25.554;2023-07-24T04:27:06;99685.88;;;26.01;57.67
43488;BME280;29078;41.932;25.554;2023-07-24T04:29:31;99679.69;;;25.90;60.35
43488;BME280;29078;41.932;25.554;2023-07-24T04:31:56;99682.94;;;25.92;60.79
43488;BME280;29078;41.932;25.554;2023-07-24T04:34:22;99676.47;;;25.88;60.21
43488;BME280;29078;41.932;25.554;2023-07-24T04:36:47;99678.09;;;25.89;60.01
43488;BME280;29078;41.932;25.554;2023-07-24T04:39:12;99676.72;;;25.91;59.99
43488;BME280;29078;41.932;25.554;2023-07-24T04:41:38;99687.53;;;25.91;61.18
43488;BME280;29078;41.932;25.554;2023-07-24T04:44:03;99687.53;;;25.96;60.15
43488;BME280;29078;41.932;25.554;2023-07-24T04:46:28;99689.16;;;26.03;60.17
43488;BME280;29078;41.932;25.554;2023-07-24T04:48:53;99691.03;;;26.07;59.24
43488;BME280;29078;41.932;25.554;2023-07-24T04:51:19;99697.25;;;26.08;61.08
43488;BME280;29078;41.932;25.554;2023-07-24T04:53:44;99703.19;;;26.15;58.28
43488;BME280;29078;41.932;25.554;2023-07-24T04:56:09;99696.69;;;26.16;58.50
43488;BME280;29078;41.932;25.554;2023-07-24T04:58:35;99702.34;;;26.19;56.25
43488;BME280;29078;41.932;25.554;2023-07-24T05:01:03;99701.28;;;26.15;57.20
43488;BME280;29078;41.932;25.554;2023-07-24T05:03:29;99711.31;;;26.15;57.75
43488;BME280;29078;41.932;25.554;2023-07-24T05:05:54;99704.56;;;26.07;59.25
43488;BME280;29078;41.932;25.554;2023-07-24T05:08:21;99717.56;;;26.05;59.24
43488;BME280;29078;41.932;25.554;2023-07-24T05:10:46;99706.19;;;26.03;58.61
43488;BME280;29078;41.932;25.554;2023-07-24T05:13:11;99704.03;;;25.95;60.24
43488;BME280;29078;41.932;25.554;2023-07-24T05:15:37;99709.72;;;25.93;59.22
43488;BME280;29078;41.932;25.554;2023-07-24T05:18:02;99710.25;;;26.06;60.35
43488;BME280;29078;41.932;25.554;2023-07-24T05:20:27;99715.09;;;26.14;58.92
43488;BME280;29078;41.932;25.554;2023-07-24T05:22:53;99715.88;;;26.19;58.60
43488;BME280;29078;41.932;25.554;2023-07-24T05:25:18;99722.09;;;26.25;58.08
43488;BME280;29078;41.932;25.554;2023-07-24T05:27:43;99730.75;;;26.27;57.40
43488;BME280;29078;41.932;25.554;2023-07-24T05:30:08;99726.41;;;26.31;57.60
43488;BME280;29078;41.932;25.554;2023-07-24T05:32:34;99729.13;;;26.26;58.32
43488;BME280;29078;41.932;25.554;2023-07-24T05:34:59;99727.25;;;26.21;58.39
43488;BME280;29078;41.932;25.554;2023-07-24T05:37:24;99731.03;;;26.20;57.89
43488;BME280;29078;41.932;25.554;2023-07-24T05:39:49;99724.03;;;26.14;59.45
43488;BME280;29078;41.932;25.554;2023-07-24T05:42:16;99723.19;;;26.19;57.08
43488;BME280;29078;41.932;25.554;2023-07-24T05:44:41;99721.28;;;26.24;58.33
43488;BME280;29078;41.932;25.554;2023-07-24T05:47:06;99727.50;;;26.30;58.74
43488;BME280;29078;41.932;25.554;2023-07-24T05:49:31;99730.47;;;26.34;58.38
43488;BME280;29078;41.932;25.554;2023-07-24T05:51:57;99735.56;;;26.45;57.13
43488;BME280;29078;41.932;25.554;2023-07-24T05:54:22;99732.00;;;26.55;57.63
43488;BME280;29078;41.932;25.554;2023-07-24T05:56:47;99726.03;;;26.58;57.36
43488;BME280;29078;41.932;25.554;2023-07-24T05:59:13;99735.47;;;26.66;55.24
43488;BME280;29078;41.932;25.554;2023-07-24T06:01:38;99738.16;;;26.71;57.95
43488;BME280;29078;41.932;25.554;2023-07-24T06:04:03;99733.56;;;26.66;58.11
43488;BME280;29078;41.932;25.554;2023-07-24T06:06:30;99729.53;;;26.64;56.62
43488;BME280;29078;41.932;25.554;2023-07-24T06:08:55;99721.13;;;26.65;57.20
43488;BME280;29078;41.932;25.554;2023-07-24T06:11:20;99720.56;;;26.68;58.88
43488;BME280;29078;41.932;25.554;2023-07-24T06:13:45;99723.53;;;26.72;58.04
43488;BME280;29078;41.932;25.554;2023-07-24T06:16:11;99724.03;;;26.79;55.50
43488;BME280;29078;41.932;25.554;2023-07-24T06:18:38;99726.16;;;26.87;56.75
43488;BME280;29078;41.932;25.554;2023-07-24T06:21:04;99723.44;;;26.87;56.58
43488;BME280;29078;41.932;25.554;2023-07-24T06:23:29;99722.31;;;26.93;56.48
43488;BME280;29078;41.932;25.554;2023-07-24T06:25:54;99716.25;;;27.11;57.24
43488;BME280;29078;41.932;25.554;2023-07-24T06:28:20;99717.53;;;27.24;55.47
43488;BME280;29078;41.932;25.554;2023-07-24T06:30:45;99718.00;;;27.31;56.24
43488;BME280;29078;41.932;25.554;2023-07-24T06:33:11;99708.41;;;27.44;55.43
43488;BME280;29078;41.932;25.554;2023-07-24T06:35:36;99713.19;;;27.62;54.96
43488;BME280;29078;41.932;25.554;2023-07-24T06:38:01;99710.34;;;27.72;54.48
43488;BME280;29078;41.932;25.554;2023-07-24T06:40:26;99705.75;;;27.73;54.85
43488;BME280;29078;41.932;25.554;2023-07-24T06:42:52;99710.13;;;27.69;54.88
43488;BME280;29078;41.932;25.554;2023-07-24T06:45:18;99709.59;;;27.67;54.74
43488;BME280;29078;41.932;25.554;2023-07-24T06:47:43;99713.66;;;27.69;54.75
43488;BME280;29078;41.932;25.554;2023-07-24T06:50:08;99709.56;;;27.72;55.35
43488;BME280;29078;41.932;25.554;2023-07-24T06:52:33;99712.25;;;27.72;54.93
43488;BME280;29078;41.932;25.554;2023-07-24T06:54:59;99706.59;;;27.68;54.53
43488;BME280;29078;41.932;25.554;2023-07-24T06:57:24;99709.66;;;27.62;55.01
43488;BME280;29078;41.932;25.554;2023-07-24T06:59:49;99701.50;;;27.62;54.48
43488;BME280;29078;41.932;25.554;2023-07-24T07:02:15;99705.84;;;27.63;55.51
43488;BME280;29078;41.932;25.554;2023-07-24T07:04:40;99696.31;;;27.65;54.63
43488;BME280;29078;41.932;25.554;2023-07-24T07:07:05;99613.28;;;27.11;54.88
43488;BME280;29078;41.932;25.554;2023-07-24T07:09:31;99699.50;;;27.72;55.50
43488;BME280;29078;41.932;25.554;2023-07-24T07:11:56;99697.41;;;27.64;56.27
43488;BME280;29078;41.932;25.554;2023-07-24T07:14:21;99701.50;;;27.62;56.84
43488;BME280;29078;41.932;25.554;2023-07-24T07:16:46;99699.63;;;27.62;55.44
43488;BME280;29078;41.932;25.554;2023-07-24T07:19:12;99699.56;;;27.67;55.00
43488;BME280;29078;41.932;25.554;2023-07-24T07:21:38;99693.78;;;27.74;55.25
43488;BME280;29078;41.932;25.554;2023-07-24T07:24:03;99692.06;;;27.83;56.51
43488;BME280;29078;41.932;25.554;2023-07-24T07:26:28;99693.50;;;27.75;55.71
43488;BME280;29078;41.932;25.554;2023-07-24T07:28:54;99686.06;;;27.86;55.15
43488;BME280;29078;41.932;25.554;2023-07-24T07:31:20;99682.88;;;28.03;53.25
43488;BME280;29078;41.932;25.554;2023-07-24T07:33:45;99674.91;;;28.11;55.21
43488;BME280;29078;41.932;25.554;2023-07-24T07:36:10;99676.16;;;28.19;54.50
43488;BME280;29078;41.932;25.554;2023-07-24T07:38:36;99679.97;;;28.18;55.02
43488;BME280;29078;41.932;25.554;2023-07-24T07:41:04;99674.03;;;28.16;54.81
43488;BME280;29078;41.932;25.554;2023-07-24T07:43:30;99676.16;;;28.24;54.73
43488;BME280;29078;41.932;25.554;2023-07-24T07:45:55;99673.59;;;28.33;54.19
43488;BME280;29078;41.932;25.554;2023-07-24T07:48:21;99668.84;;;28.43;55.11
43488;BME280;29078;41.932;25.554;2023-07-24T07:50:49;99670.38;;;28.50;52.86
43488;BME280;29078;41.932;25.554;2023-07-24T07:53:15;99665.03;;;28.44;53.95
43488;BME280;29078;41.932;25.554;2023-07-24T07:55:40;99668.13;;;28.57;53.50
43488;BME280;29078;41.932;25.554;2023-07-24T07:58:05;99667.59;;;28.73;51.55
43488;BME280;29078;41.932;25.554;2023-07-24T08:00:30;99670.75;;;28.80;51.73
43488;BME280;29078;41.932;25.554;2023-07-24T08:02:56;99678.25;;;28.89;51.76
43488;BME280;29078;41.932;25.554;2023-07-24T08:05:21;99667.00;;;28.95;50.56
43488;BME280;29078;41.932;25.554;2023-07-24T08:07:46;99664.47;;;29.04;50.80
43488;BME280;29078;41.932;25.554;2023-07-24T08:10:11;99668.19;;;29.08;51.14
43488;BME280;29078;41.932;25.554;2023-07-24T08:12:40;99647.66;;;29.16;50.36
43488;BME280;29078;41.932;25.554;2023-07-24T08:15:05;99649.78;;;29.19;50.59
43488;BME280;29078;41.932;25.554;2023-07-24T08:17:30;99652.63;;;29.27;50.29
43488;BME280;29078;41.932;25.554;2023-07-24T08:19:56;99650.84;;;29.36;50.40
43488;BME280;29078;41.932;25.554;2023-07-24T08:22:21;99648.69;;;29.52;50.48
43488;BME280;29078;41.932;25.554;2023-07-24T08:24:47;99643.75;;;29.68;49.34
43488;BME280;29078;41.932;25.554;2023-07-24T08:27:15;99646.66;;;29.71;49.62
43488;BME280;29078;41.932;25.554;2023-07-24T08:29:40;99651.44;;;29.93;48.88
43488;BME280;29078;41.932;25.554;2023-07-24T08:32:05;99645.19;;;29.93;49.23
43488;BME280;29078;41.932;25.554;2023-07-24T08:34:31;99641.97;;;30.04;48.56
43488;BME280;29078;41.932;25.554;2023-07-24T08:36:56;99636.50;;;30.18;48.08
43488;BME280;29078;41.932;25.554;2023-07-24T08:39:22;99621.94;;;30.36;47.83
43488;BME280;29078;41.932;25.554;2023-07-24T08:41:47;99630.31;;;30.40;46.93
43488;BME280;29078;41.932;25.554;2023-07-24T08:44:12;99619.81;;;30.47;46.82
43488;BME280;29078;41.932;25.554;2023-07-24T08:46:38;99621.63;;;30.52;45.84
43488;BME280;29078;41.932;25.554;2023-07-24T08:49:06;99619.69;;;30.66;45.71
43488;BME280;29078;41.932;25.554;2023-07-24T08:51:31;99623.16;;;30.80;46.17
43488;BME280;29078;41.932;25.554;2023-07-24T08:53:57;99619.25;;;30.95;45.37
43488;BME280;29078;41.932;25.554;2023-07-24T08:56:23;99614.03;;;31.07;45.06
43488;BME280;29078;41.932;25.554;2023-07-24T08:58:49;99609.47;;;31.16;44.28
43488;BME280;29078;41.932;25.554;2023-07-24T09:01:14;99610.38;;;31.34;41.97
43488;BME280;29078;41.932;25.554;2023-07-24T09:03:39;99612.06;;;31.52;41.21
43488;BME280;29078;41.932;25.554;2023-07-24T09:06:05;99607.66;;;31.74;42.60
43488;BME280;29078;41.932;25.554;2023-07-24T09:11:00;99603.44;;;32.07;41.97
43488;BME280;29078;41.932;25.554;2023-07-24T09:13:26;99602.97;;;32.14;41.89
43488;BME280;29078;41.932;25.554;2023-07-24T09:15:51;99598.19;;;32.28;40.42
43488;BME280;29078;41.932;25.554;2023-07-24T09:18:16;99594.81;;;32.40;37.29
43488;BME280;29078;41.932;25.554;2023-07-24T09:20:43;99591.75;;;32.33;39.83
43488;BME280;29078;41.932;25.554;2023-07-24T09:23:09;99594.31;;;32.55;38.87
43488;BME280;29078;41.932;25.554;2023-07-24T09:25:35;99581.00;;;32.71;38.17
43488;BME280;29078;41.932;25.554;2023-07-24T09:28:08;99585.97;;;32.95;38.79
43488;BME280;29078;41.932;25.554;2023-07-24T09:30:33;99584.94;;;33.16;38.37
43488;BME280;29078;41.932;25.554;2023-07-24T09:32:59;99587.31;;;33.35;37.82
43488;BME280;29078;41.932;25.554;2023-07-24T09:35:24;99586.31;;;33.48;38.14
43488;BME280;29078;41.932;25.554;2023-07-24T09:38:01;99588.03;;;33.62;37.25
43488;BME280;29078;41.932;25.554;2023-07-24T09:40:26;99578.75;;;33.84;32.53
43488;BME280;29078;41.932;25.554;2023-07-24T09:42:51;99573.06;;;33.89;34.99
43488;BME280;29078;41.932;25.554;2023-07-24T09:45:17;99563.72;;;34.10;35.65
43488;BME280;29078;41.932;25.554;2023-07-24T09:47:42;99565.53;;;34.36;35.24
43488;BME280;29078;41.932;25.554;2023-07-24T09:50:08;99560.41;;;34.47;34.83
43488;BME280;29078;41.932;25.554;2023-07-24T09:52:33;99559.19;;;34.56;35.63
43488;BME280;29078;41.932;25.554;2023-07-24T09:55:06;99563.47;;;34.66;34.06
43488;BME280;29078;41.932;25.554;2023-07-24T09:57:35;99559.56;;;34.88;30.64
43488;BME280;29078;41.932;25.554;2023-07-24T10:00:01;99554.03;;;35.09;30.79
43488;BME280;29078;41.932;25.554;2023-07-24T10:02:27;99552.22;;;35.25;31.88
43488;BME280;29078;41.932;25.554;2023-07-24T10:04:52;99544.78;;;35.25;33.08
43488;BME280;29078;41.932;25.554;2023-07-24T10:07:18;99541.84;;;35.43;31.67
43488;BME280;29078;41.932;25.554;2023-07-24T10:09:46;99544.69;;;35.58;32.44
43488;BME280;29078;41.932;25.554;2023-07-24T10:12:12;99530.03;;;35.79;30.25
43488;BME280;29078;41.932;25.554;2023-07-24T10:14:37;99528.09;;;35.91;27.54
43488;BME280;29078;41.932;25.554;2023-07-24T10:17:03;99523.94;;;35.97;29.78
43488;BME280;29078;41.932;25.554;2023-07-24T10:19:35;99516.13;;;36.12;30.00
43488;BME280;29078;41.932;25.554;2023-07-24T10:22:02;99518.34;;;36.34;32.03
43488;BME280;29078;41.932;25.554;2023-07-24T10:24:32;99510.88;;;36.47;28.46
43488;BME280;29078;41.932;25.554;2023-07-24T10:26:58;99519.94;;;36.63;27.71
43488;BME280;29078;41.932;25.554;2023-07-24T10:29:23;99521.75;;;36.71;28.91
43488;BME280;29078;41.932;25.554;2023-07-24T10:31:53;99511.75;;;36.95;29.42
43488;BME280;29078;41.932;25.554;2023-07-24T10:34:19;99503.94;;;36.97;26.87
43488;BME280;29078;41.932;25.554;2023-07-24T10:36:45;99509.72;;;37.07;29.62
43488;BME280;29078;41.932;25.554;2023-07-24T10:39:14;99505.75;;;37.20;29.48
43488;BME280;29078;41.932;25.554;2023-07-24T10:41:39;99504.69;;;37.25;28.65
43488;BME280;29078;41.932;25.554;2023-07-24T10:44:05;99495.00;;;37.31;27.14
43488;BME280;29078;41.932;25.554;2023-07-24T10:46:37;99485.72;;;37.55;26.71
43488;BME280;29078;41.932;25.554;2023-07-24T10:49:03;99488.81;;;37.69;24.58
43488;BME280;29078;41.932;25.554;2023-07-24T10:51:31;99480.88;;;37.68;25.78
43488;BME280;29078;41.932;25.554;2023-07-24T10:54:02;99479.53;;;37.77;23.27
43488;BME280;29078;41.932;25.554;2023-07-24T10:56:28;99468.00;;;37.72;26.15
43488;BME280;29078;41.932;25.554;2023-07-24T10:58:54;99468.47;;;37.93;26.29
43488;BME280;29078;41.932;25.554;2023-07-24T11:01:19;99467.66;;;38.12;24.03
43488;BME280;29078;41.932;25.554;2023-07-24T11:03:44;99461.97;;;38.21;27.13
43488;BME280;29078;41.932;25.554;2023-07-24T11:06:17;99461.88;;;38.36;26.02
43488;BME280;29078;41.932;25.554;2023-07-24T11:08:42;99454.94;;;38.65;24.57
43488;BME280;29078;41.932;25.554;2023-07-24T11:11:15;99449.72;;;38.83;25.01
43488;BME280;29078;41.932;25.554;2023-07-24T11:13:40;99454.31;;;38.98;26.05
43488;BME280;29078;41.932;25.554;2023-07-24T11:16:06;99447.03;;;39.09;24.97
43488;BME280;29078;41.932;25.554;2023-07-24T11:18:32;99450.47;;;39.29;25.17
43488;BME280;29078;41.932;25.554;2023-07-24T11:20:57;99441.53;;;39.13;25.20
43488;BME280;29078;41.932;25.554;2023-07-24T11:23:23;99440.75;;;39.13;25.26
43488;BME280;29078;41.932;25.554;2023-07-24T11:25:52;99438.16;;;39.23;26.36
43488;BME280;29078;41.932;25.554;2023-07-24T11:28:18;99435.34;;;39.20;23.62
43488;BME280;29078;41.932;25.554;2023-07-24T11:30:43;99428.47;;;39.10;23.22
43488;BME280;29078;41.932;25.554;2023-07-24T11:33:09;99423.75;;;39.11;24.42
43488;BME280;29078;41.932;25.554;2023-07-24T11:35:35;99419.25;;;39.25;24.17
43488;BME280;29078;41.932;25.554;2023-07-24T11:38:01;99420.50;;;39.31;25.24
43488;BME280;29078;41.932;25.554;2023-07-24T11:40:31;99413.66;;;39.48;21.58
43488;BME280;29078;41.932;25.554;2023-07-24T11:42:56;99413.72;;;39.52;24.59
43488;BME280;29078;41.932;25.554;2023-07-24T11:45:21;99411.59;;;39.71;22.70
43488;BME280;29078;41.932;25.554;2023-07-24T11:47:47;99407.09;;;39.90;22.70
43488;BME280;29078;41.932;25.554;2023-07-24T11:50:13;99405.00;;;40.13;22.92
43488;BME280;29078;41.932;25.554;2023-07-24T11:52:43;99410.00;;;40.00;23.77
43488;BME280;29078;41.932;25.554;2023-07-24T11:55:13;99393.84;;;39.72;23.46
43488;BME280;29078;41.932;25.554;2023-07-24T11:57:38;99395.09;;;39.79;23.58
43488;BME280;29078;41.932;25.554;2023-07-24T12:00:04;99397.94;;;39.86;23.83
43488;BME280;29078;41.932;25.554;2023-07-24T12:02:31;99387.22;;;39.81;23.40
43488;BME280;29078;41.932;25.554;2023-07-24T12:04:57;99390.13;;;39.58;23.35
43488;BME280;29078;41.932;25.554;2023-07-24T12:07:28;99384.94;;;39.53;22.61
43488;BME280;29078;41.932;25.554;2023-07-24T12:09:54;99389.63;;;39.82;21.92
43488;BME280;29078;41.932;25.554;2023-07-24T12:12:19;99381.97;;;40.02;22.13
43488;BME280;29078;41.932;25.554;2023-07-24T12:14:44;99381.19;;;40.05;23.08
43488;BME280;29078;41.932;25.554;2023-07-24T12:17:10;99376.31;;;40.28;21.04
43488;BME280;29078;41.932;25.554;2023-07-24T12:19:39;99372.16;;;40.45;21.72
43488;BME280;29078;41.932;25.554;2023-07-24T12:22:04;99366.75;;;40.63;20.30
43488;BME280;29078;41.932;25.554;2023-07-24T12:24:29;99367.28;;;40.79;21.86
43488;BME280;29078;41.932;25.554;2023-07-24T12:26:55;99362.50;;;40.76;22.45
43488;BME280;29078;41.932;25.554;2023-07-24T12:29:20;99354.88;;;40.59;21.57
43488;BME280;29078;41.932;25.554;2023-07-24T12:31:45;99352.50;;;40.61;21.38
43488;BME280;29078;41.932;25.554;2023-07-24T12:34:10;99356.09;;;40.65;22.26
43488;BME280;29078;41.932;25.554;2023-07-24T12:36:36;99353.75;;;40.71;20.82
43488;BME280;29078;41.932;25.554;2023-07-24T12:39:01;99355.47;;;40.86;20.78
43488;BME280;29078;41.932;25.554;2023-07-24T12:41:27;99354.81;;;41.00;21.14
43488;BME280;29078;41.932;25.554;2023-07-24T12:43:52;99351.66;;;41.05;20.30
43488;BME280;29078;41.932;25.554;2023-07-24T12:46:17;99344.91;;;41.02;21.49
43488;BME280;29078;41.932;25.554;2023-07-24T12:48:42;99284.09;;;40.61;21.31
43488;BME280;29078;41.932;25.554;2023-07-24T12:51:08;99342.53;;;41.01;21.25